Citta Di Savona — IMDS — position and weather

sailwx.info

Track history (hours):
 
Tides and Currents Weather Stations Pressure Air Temp Water Temp Dewpoint Dewpoint Depression Visibility Wind Speed Wind Dir Waves Ship Positions

Citta Di Savona

Last reported at 2015-May-05 18:21 UTC. Time now 2015-May-05 19:20 UTC.
Position N 44°19' E 008°29'.

Length 31 m; draft 4.2 m.

Type: Tug. MMSI: 247402000.

Date/timePositionNaut miles runAvg speedWind from/ knotsBaromVisibWave heightAir tempDewpointWater temp
2015-May-05 18:21N 44°19' E 008°29'2 3.0
2015-May-05 17:33N 44°16' E 008°28'1 0.2
2015-May-05 13:33N 44°16' E 008°27'2 1.7
2015-May-05 12:31N 44°17' E 008°28'2 0.3
2015-May-05 06:26N 44°18' E 008°29'1 0.4
2015-May-05 04:31N 44°19' E 008°30'1 0.0
2015-May-04 08:32N 44°18' E 008°30'3 1.3
2015-May-04 06:14N 44°16' E 008°28'3 4.5
2015-May-04 05:30N 44°19' E 008°31'1 0.0
2015-May-02 05:10N 44°19' E 008°30'0 0.5
2015-May-02 04:32N 44°19' E 008°30'  
2015-Apr-28 21:29N 44°19' E 008°30'2 0.1
2015-Apr-27 20:32N 44°17' E 008°29'2 0.2
2015-Apr-27 12:22N 44°19' E 008°30'0 0.0
2015-Apr-27 05:23N 44°19' E 008°30'0 0.4
2015-Apr-27 04:29N 44°19' E 008°30'1 0.0
2015-Apr-26 16:04N 44°19' E 008°30'2 4.6
2015-Apr-26 15:33N 44°17' E 008°27'0 0.1
2015-Apr-26 14:33N 44°17' E 008°28'0 0.1
2015-Apr-26 13:31N 44°17' E 008°28'1 0.8
2015-Apr-26 12:25N 44°16' E 008°27'  
Track history (hours):
 
Tides and Currents Weather Stations Pressure Air Temp Water Temp Dewpoint Dewpoint Depression Visibility Wind Speed Wind Dir Waves Ship Positions

Citta Di Savona

Last reported at 2015-May-05 18:21 UTC. Time now 2015-May-05 19:20 UTC.
Position N 44°19' E 008°29'.

Length 31 m; draft 4.2 m.

Type: Tug. MMSI: 247402000.

Date/timePositionNaut miles runAvg speedWind from/ knotsBaromVisibWave heightAir tempDewpointWater temp
2015-May-05 18:21N 44°19' E 008°29'2 3.0
2015-May-05 17:33N 44°16' E 008°28'1 0.2
2015-May-05 13:33N 44°16' E 008°27'2 1.7
2015-May-05 12:31N 44°17' E 008°28'2 0.3
2015-May-05 06:26N 44°18' E 008°29'1 0.4
2015-May-05 04:31N 44°19' E 008°30'1 0.0
2015-May-04 08:32N 44°18' E 008°30'3 1.3
2015-May-04 06:14N 44°16' E 008°28'3 4.5
2015-May-04 05:30N 44°19' E 008°31'1 0.0
2015-May-02 05:10N 44°19' E 008°30'0 0.5
2015-May-02 04:32N 44°19' E 008°30'  
2015-Apr-28 21:29N 44°19' E 008°30'2 0.1
2015-Apr-27 20:32N 44°17' E 008°29'2 0.2
2015-Apr-27 12:22N 44°19' E 008°30'0 0.0
2015-Apr-27 05:23N 44°19' E 008°30'0 0.4
2015-Apr-27 04:29N 44°19' E 008°30'1 0.0
2015-Apr-26 16:04N 44°19' E 008°30'2 4.6
2015-Apr-26 15:33N 44°17' E 008°27'0 0.1
2015-Apr-26 14:33N 44°17' E 008°28'0 0.1
2015-Apr-26 13:31N 44°17' E 008°28'1 0.8
2015-Apr-26 12:25N 44°16' E 008°27'  

Dump ship's entire track history